createdAt,value
2023-04-13T00:00:50.274Z,0.55
2023-04-13T00:03:22.228Z,0.47
2023-04-13T00:05:54.672Z,0.50
2023-04-13T00:08:22.114Z,0.88
2023-04-13T00:10:53.983Z,0.60
2023-04-13T00:13:20.083Z,0.60
2023-04-13T00:15:46.293Z,0.60
2023-04-13T00:18:12.439Z,0.60
2023-04-13T00:20:41.146Z,0.60
2023-04-13T00:23:09.347Z,0.55
2023-04-13T00:25:41.366Z,0.55
2023-04-13T00:28:08.332Z,0.65
2023-04-13T00:30:34.529Z,0.70
2023-04-13T00:33:02.955Z,0.75
2023-04-13T00:35:29.340Z,0.60
2023-04-13T00:37:59.841Z,0.50
2023-04-13T00:40:27.404Z,0.65
2023-04-13T00:42:56.552Z,0.52
2023-04-13T00:45:22.622Z,0.80
2023-04-13T00:47:51.164Z,0.57
2023-04-13T00:50:20.234Z,0.45
2023-04-13T00:52:54.327Z,1.25
2023-04-13T00:55:28.187Z,0.50
2023-04-13T00:57:54.541Z,0.63
2023-04-13T01:00:26.504Z,0.38
2023-04-13T01:02:54.150Z,0.60
2023-04-13T01:05:28.864Z,0.68
2023-04-13T01:08:18.111Z,0.60
2023-04-13T01:11:03.765Z,0.50
2023-04-13T01:13:47.889Z,0.60
2023-04-13T01:16:28.572Z,0.80
2023-04-13T01:18:56.704Z,0.60
2023-04-13T01:21:31.344Z,0.40
2023-04-13T01:24:28.664Z,0.43
2023-04-13T01:27:20.627Z,0.60
2023-04-13T01:29:47.882Z,0.65
2023-04-13T01:32:15.664Z,0.55
2023-04-13T01:34:45.405Z,0.65
2023-04-13T01:37:12.349Z,0.60
2023-04-13T01:39:41.561Z,0.50
2023-04-13T01:42:07.739Z,0.63
2023-04-13T01:44:34.703Z,0.60
2023-04-13T01:47:17.758Z,0.63
2023-04-13T01:50:12.664Z,0.55
2023-04-13T01:52:42.735Z,0.47
2023-04-13T01:55:11.710Z,0.50
2023-04-13T01:57:40.428Z,0.65
2023-04-13T02:00:12.479Z,0.50
2023-04-13T02:02:40.093Z,0.50
2023-04-13T02:05:12.471Z,0.40
2023-04-13T02:07:40.907Z,0.65
2023-04-13T02:10:07.676Z,0.47
2023-04-13T02:12:36.866Z,0.50
2023-04-13T02:15:04.346Z,0.65
2023-04-13T02:17:31.691Z,0.40
2023-04-13T02:19:57.781Z,0.50
2023-04-13T02:22:25.193Z,0.50
2023-04-13T02:24:51.273Z,0.70
2023-04-13T02:27:21.963Z,0.45
2023-04-13T02:29:52.535Z,0.50
2023-04-13T02:32:18.717Z,0.47
2023-04-13T02:34:45.424Z,0.50
2023-04-13T02:37:15.347Z,0.55
2023-04-13T02:39:44.963Z,0.40
2023-04-13T02:42:11.100Z,0.40
2023-04-13T02:44:40.054Z,0.50
2023-04-13T02:47:10.028Z,0.40
2023-04-13T02:49:37.018Z,0.30
2023-04-13T02:52:03.332Z,0.30
2023-04-13T02:54:35.514Z,0.30
2023-04-13T02:57:01.615Z,0.43
2023-04-13T02:59:30.404Z,0.50
2023-04-13T03:01:57.957Z,0.30
2023-04-13T03:04:25.082Z,0.30
2023-04-13T03:06:53.764Z,0.20
2023-04-13T03:09:23.104Z,0.40
2023-04-13T03:11:56.430Z,0.35
2023-04-13T03:14:22.541Z,0.30
2023-04-13T03:16:48.953Z,0.22
2023-04-13T03:19:16.243Z,0.40
2023-04-13T03:21:43.801Z,0.30
2023-04-13T03:24:11.744Z,0.30
2023-04-13T03:27:01.897Z,0.20
2023-04-13T03:29:30.580Z,0.47
2023-04-13T03:32:09.033Z,0.28
2023-04-13T03:34:46.573Z,0.40
2023-04-13T03:37:12.668Z,0.20
2023-04-13T03:39:38.808Z,0.20
2023-04-13T03:42:05.117Z,0.20
2023-04-13T03:44:33.441Z,0.20
2023-04-13T03:47:00.965Z,0.20
2023-04-13T03:49:27.676Z,0.17
2023-04-13T03:51:58.237Z,0.30
2023-04-13T03:54:25.310Z,0.30
2023-04-13T03:56:57.372Z,0.20
2023-04-13T03:59:27.068Z,0.20
2023-04-13T04:01:53.240Z,0.20
2023-04-13T04:04:20.779Z,0.20
2023-04-13T04:06:52.124Z,0.20
2023-04-13T04:09:18.211Z,0.25
2023-04-13T04:11:44.499Z,2.88
2023-04-13T04:14:10.681Z,1.90
2023-04-13T04:16:58.685Z,0.60
2023-04-13T04:19:26.052Z,0.68
2023-04-13T04:21:57.130Z,0.20
2023-04-13T04:24:23.774Z,0.90
2023-04-13T04:26:50.281Z,0.40
2023-04-13T04:29:38.624Z,1.15
2023-04-13T04:32:09.970Z,0.50
2023-04-13T04:34:36.154Z,0.65
2023-04-13T04:37:19.591Z,0.55
2023-04-13T04:39:47.083Z,0.40
2023-04-13T04:42:14.375Z,1.85
2023-04-13T04:44:44.622Z,2.38
2023-04-13T04:47:16.197Z,0.40
2023-04-13T04:49:42.435Z,0.65
2023-04-13T04:52:11.768Z,0.35
2023-04-13T04:54:38.947Z,0.20
2023-04-13T04:57:05.327Z,0.30
2023-04-13T04:59:31.397Z,0.38
2023-04-13T05:01:57.568Z,0.32
2023-04-13T05:04:23.633Z,0.30
2023-04-13T05:06:51.090Z,1.25
2023-04-13T05:09:19.867Z,2.10
2023-04-13T05:11:47.141Z,1.50
2023-04-13T05:14:13.259Z,1.70
2023-04-13T05:16:39.334Z,2.08
2023-04-13T05:19:07.864Z,3.70
2023-04-13T05:21:34.159Z,1.60
2023-04-13T05:24:04.284Z,0.93
2023-04-13T05:26:56.678Z,0.60
2023-04-13T05:29:22.761Z,2.60
2023-04-13T05:31:48.893Z,0.88
2023-04-13T05:34:15.842Z,1.40
2023-04-13T05:36:41.895Z,1.40
2023-04-13T05:39:08.099Z,1.67
2023-04-13T05:41:37.884Z,2.90
2023-04-13T05:44:08.780Z,4.90
2023-04-13T05:46:35.046Z,4.40
2023-04-13T05:49:02.247Z,3.45
2023-04-13T05:51:33.364Z,2.63
2023-04-13T05:54:03.174Z,1.77
2023-04-13T05:56:29.368Z,2.08
2023-04-13T05:58:57.874Z,3.38
2023-04-13T06:02:14.630Z,1.67
2023-04-13T06:04:41.819Z,2.38
2023-04-13T06:07:08.204Z,2.45
2023-04-13T06:09:34.251Z,2.97
2023-04-13T06:12:04.839Z,3.67
2023-04-13T06:14:34.117Z,4.75
2023-04-13T06:17:00.797Z,2.00
2023-04-13T06:19:28.806Z,3.40
2023-04-13T06:21:56.560Z,1.30
2023-04-13T06:24:22.630Z,2.70
2023-04-13T06:26:48.759Z,2.95
2023-04-13T06:29:15.036Z,1.08
2023-04-13T06:31:41.384Z,1.25
2023-04-13T06:34:07.672Z,1.27
2023-04-13T06:36:33.778Z,1.55
2023-04-13T06:39:00.093Z,1.30
2023-04-13T06:41:26.730Z,1.33
2023-04-13T06:43:52.774Z,1.35
2023-04-13T06:46:20.060Z,0.85
2023-04-13T06:48:46.390Z,0.63
2023-04-13T06:51:12.497Z,0.73
2023-04-13T06:53:38.619Z,0.93
2023-04-13T06:56:05.507Z,0.57
2023-04-13T06:58:32.004Z,0.77
2023-04-13T07:00:58.260Z,0.47
2023-04-13T07:03:24.771Z,1.10
2023-04-13T07:05:50.915Z,1.00
2023-04-13T07:08:19.417Z,0.68
2023-04-13T07:10:53.797Z,1.00
2023-04-13T07:13:20.398Z,0.73
2023-04-13T07:15:50.212Z,0.93
2023-04-13T07:18:16.453Z,1.67
2023-04-13T07:20:42.503Z,1.52
2023-04-13T07:23:15.989Z,1.27
2023-04-13T07:25:45.234Z,1.00
2023-04-13T07:28:11.280Z,0.60
2023-04-13T07:30:43.436Z,0.43
2023-04-13T07:33:11.673Z,1.05
2023-04-13T07:35:38.584Z,0.70
2023-04-13T07:38:06.165Z,1.35
2023-04-13T07:40:32.305Z,1.25
2023-04-13T07:42:58.370Z,0.70
2023-04-13T07:45:24.591Z,0.60
2023-04-13T07:47:54.410Z,4.05
2023-04-13T07:50:20.477Z,5.72
2023-04-13T07:52:46.535Z,1.20
2023-04-13T07:55:16.288Z,1.40
2023-04-13T07:57:43.184Z,1.42
2023-04-13T08:00:11.658Z,0.63
2023-04-13T08:02:38.079Z,0.82
2023-04-13T08:05:06.286Z,0.93
2023-04-13T08:07:40.629Z,0.82
2023-04-13T08:10:07.624Z,2.53
2023-04-13T08:12:33.734Z,1.88
2023-04-13T08:14:59.784Z,1.00
2023-04-13T08:17:26.162Z,2.08
2023-04-13T08:19:56.903Z,0.95
2023-04-13T08:22:23.017Z,0.75
2023-04-13T08:24:49.082Z,0.90
2023-04-13T08:27:19.145Z,1.25
2023-04-13T08:29:45.947Z,3.17
2023-04-13T08:32:12.091Z,1.10
2023-04-13T08:34:38.226Z,2.05
2023-04-13T08:37:04.442Z,1.05
2023-04-13T08:39:30.775Z,0.63
2023-04-13T08:41:57.331Z,1.40
2023-04-13T08:44:23.470Z,1.38
2023-04-13T08:46:51.985Z,0.70
2023-04-13T08:49:18.722Z,0.68
2023-04-13T08:51:46.629Z,0.80
2023-04-13T08:54:14.179Z,2.53
2023-04-13T08:56:46.736Z,1.05
2023-04-13T08:59:15.527Z,2.65
2023-04-13T09:01:46.062Z,2.08
2023-04-13T09:04:16.961Z,2.55
2023-04-13T09:06:47.216Z,0.65
2023-04-13T09:09:14.260Z,2.40
2023-04-13T09:11:41.719Z,1.73
2023-04-13T09:14:09.230Z,0.90
2023-04-13T09:16:39.474Z,1.00
2023-04-13T09:19:05.615Z,2.28
2023-04-13T09:21:45.239Z,1.90
2023-04-13T09:24:13.225Z,1.77
2023-04-13T09:26:46.665Z,1.05
2023-04-13T09:29:15.747Z,2.38
2023-04-13T09:31:45.065Z,0.90
2023-04-13T09:34:12.372Z,0.43
2023-04-13T09:36:49.584Z,1.10
2023-04-13T09:39:27.012Z,1.30
2023-04-13T09:41:54.210Z,0.65
2023-04-13T09:44:23.676Z,0.60
2023-04-13T09:46:57.253Z,2.67
2023-04-13T09:49:24.859Z,0.45
2023-04-13T09:51:50.983Z,1.33
2023-04-13T09:54:22.092Z,0.85
2023-04-13T09:56:55.556Z,1.98
2023-04-13T09:59:26.606Z,0.95
2023-04-13T10:01:55.482Z,0.82
2023-04-13T10:04:22.453Z,0.85
2023-04-13T10:06:48.606Z,1.48
2023-04-13T10:09:15.551Z,0.30
2023-04-13T10:11:45.817Z,0.80
2023-04-13T10:14:17.366Z,1.02
2023-04-13T10:17:08.446Z,0.82
2023-04-13T10:19:48.167Z,1.50
2023-04-13T10:22:16.031Z,0.68
2023-04-13T10:24:43.193Z,0.98
2023-04-13T10:27:22.797Z,2.13
2023-04-13T10:29:49.369Z,1.25
2023-04-13T10:32:26.203Z,0.75
2023-04-13T10:34:53.380Z,1.55
2023-04-13T10:37:25.019Z,0.82
2023-04-13T10:40:05.021Z,0.63
2023-04-13T10:42:53.207Z,1.83
2023-04-13T10:45:27.025Z,0.90
2023-04-13T10:47:54.330Z,0.52
2023-04-13T10:50:22.350Z,1.90
2023-04-13T10:53:06.127Z,0.68
2023-04-13T10:55:33.701Z,0.50
2023-04-13T10:58:01.533Z,0.68
2023-04-13T11:00:42.288Z,0.80
2023-04-13T11:03:14.360Z,0.75
2023-04-13T11:05:41.109Z,1.33
2023-04-13T11:08:08.603Z,0.63
2023-04-13T11:10:35.029Z,1.05
2023-04-13T11:13:01.342Z,0.60
2023-04-13T11:15:28.987Z,0.50
2023-04-13T11:17:57.322Z,1.02
2023-04-13T11:20:34.347Z,1.02
2023-04-13T11:23:02.884Z,0.25
2023-04-13T11:25:29.896Z,0.65
2023-04-13T11:28:00.628Z,0.50
2023-04-13T11:30:27.553Z,0.80
2023-04-13T11:32:55.633Z,0.47
2023-04-13T11:35:22.780Z,1.00
2023-04-13T11:37:52.350Z,0.73
2023-04-13T11:40:22.497Z,0.68
2023-04-13T11:42:54.282Z,0.60
2023-04-13T11:45:22.766Z,0.95
2023-04-13T11:47:50.135Z,0.30
2023-04-13T11:50:17.373Z,1.55
2023-04-13T11:52:45.859Z,1.33
2023-04-13T11:55:22.299Z,2.40
2023-04-13T11:57:50.676Z,1.52
2023-04-13T12:00:23.445Z,0.88
2023-04-13T12:03:01.341Z,0.65
2023-04-13T12:05:31.567Z,0.68
2023-04-13T12:07:58.784Z,2.20
2023-04-13T12:10:38.463Z,1.88
2023-04-13T12:13:18.008Z,0.50
2023-04-13T12:16:05.348Z,0.82
2023-04-13T12:18:46.859Z,0.63
2023-04-13T12:21:16.564Z,2.42
2023-04-13T12:23:57.619Z,2.83
2023-04-13T12:29:13.500Z,3.78
2023-04-13T12:31:46.438Z,0.77
2023-04-13T12:34:16.421Z,2.50
2023-04-13T12:37:13.011Z,1.85
2023-04-13T12:39:39.193Z,1.17
2023-04-13T12:42:05.530Z,1.30
2023-04-13T12:44:33.776Z,2.38
2023-04-13T12:47:00.975Z,3.72
2023-04-13T12:49:27.110Z,1.88
2023-04-13T12:51:53.173Z,2.25
2023-04-13T12:54:19.310Z,1.30
2023-04-13T12:56:45.454Z,4.18
2023-04-13T12:59:11.567Z,1.67
2023-04-13T13:01:38.212Z,2.20
2023-04-13T13:04:05.740Z,0.90
2023-04-13T13:06:33.345Z,1.02
2023-04-13T13:08:59.883Z,0.57
2023-04-13T13:11:27.110Z,0.73
2023-04-13T13:13:53.182Z,1.25
2023-04-13T13:16:19.306Z,1.27
2023-04-13T13:18:50.978Z,1.20
2023-04-13T13:21:28.353Z,0.70
2023-04-13T13:23:54.465Z,1.77
2023-04-13T13:26:24.925Z,0.98
2023-04-13T13:28:53.423Z,1.65
2023-04-13T13:31:19.672Z,1.88
2023-04-13T13:33:46.213Z,1.25
2023-04-13T13:36:13.279Z,1.02
2023-04-13T13:38:39.338Z,1.85
2023-04-13T13:41:05.711Z,1.10
2023-04-13T13:43:32.193Z,1.35
2023-04-13T13:45:58.375Z,0.82
2023-04-13T13:48:24.627Z,1.08
2023-04-13T13:50:51.896Z,1.80
2023-04-13T13:53:17.965Z,0.60
2023-04-13T13:55:44.484Z,1.02
2023-04-13T13:58:10.666Z,1.00
2023-04-13T14:00:37.377Z,0.57
2023-04-13T14:03:03.500Z,1.10
2023-04-13T14:05:29.744Z,0.95
2023-04-13T14:07:55.836Z,1.88
2023-04-13T14:10:21.905Z,0.60
2023-04-13T14:12:50.517Z,0.50
2023-04-13T14:15:17.119Z,0.80
2023-04-13T14:17:43.318Z,1.38
2023-04-13T14:20:11.042Z,1.17
2023-04-13T14:22:38.894Z,0.93
2023-04-13T14:25:06.291Z,1.58
2023-04-13T14:27:33.104Z,0.82
2023-04-13T14:29:59.153Z,1.42
2023-04-13T14:32:25.320Z,1.02
2023-04-13T14:34:52.686Z,0.35
2023-04-13T14:37:19.450Z,1.13
2023-04-13T14:39:45.969Z,1.00
2023-04-13T14:42:12.024Z,0.73
2023-04-13T14:44:38.101Z,0.75
2023-04-13T14:47:08.459Z,0.75
2023-04-13T14:49:35.449Z,0.63
2023-04-13T14:52:01.761Z,0.45
2023-04-13T14:54:27.916Z,1.25
2023-04-13T14:56:54.266Z,0.50
2023-04-13T14:59:20.727Z,0.30
2023-04-13T15:01:47.086Z,0.50
2023-04-13T15:04:13.411Z,0.32
2023-04-13T15:06:39.593Z,0.88
2023-04-13T15:09:08.859Z,0.35
2023-04-13T15:11:36.257Z,0.30
2023-04-13T15:14:03.004Z,0.57
2023-04-13T15:16:29.225Z,0.88
2023-04-13T15:18:55.446Z,0.30
2023-04-13T15:21:21.515Z,0.30
2023-04-13T15:23:47.597Z,0.43
2023-04-13T15:26:21.123Z,0.82
2023-04-13T15:28:47.258Z,0.20
2023-04-13T15:31:13.313Z,0.10
2023-04-13T15:33:39.358Z,0.20
2023-04-13T15:36:05.924Z,0.20
2023-04-13T15:38:32.009Z,0.20
2023-04-13T15:40:58.068Z,0.30
2023-04-13T15:43:24.148Z,0.10
2023-04-13T15:45:50.474Z,0.20
2023-04-13T15:48:17.301Z,0.10
2023-04-13T15:50:43.344Z,0.50
2023-04-13T15:53:09.679Z,0.20
2023-04-13T15:55:36.069Z,0.20
2023-04-13T15:58:03.357Z,0.45
2023-04-13T16:00:30.036Z,0.40
2023-04-13T16:02:56.294Z,0.10
2023-04-13T16:05:22.493Z,0.60
2023-04-13T16:07:48.535Z,0.25
2023-04-13T16:10:16.016Z,0.10
2023-04-13T16:12:44.094Z,0.25
2023-04-13T16:15:11.350Z,0.10
2023-04-13T16:17:40.415Z,0.30
2023-04-13T16:20:13.038Z,0.45
2023-04-13T16:22:40.754Z,0.20
2023-04-13T16:25:10.678Z,0.10
2023-04-13T16:27:37.431Z,0.40
2023-04-13T16:30:04.635Z,0.10
2023-04-13T16:32:31.097Z,0.10
2023-04-13T16:34:57.553Z,0.20
2023-04-13T16:37:23.593Z,0.10
2023-04-13T16:39:49.645Z,0.10
2023-04-13T16:42:18.654Z,0.10
2023-04-13T16:44:45.253Z,0.20
2023-04-13T16:47:11.326Z,0.20
2023-04-13T16:49:37.366Z,0.30
2023-04-13T16:52:03.545Z,0.20
2023-04-13T16:54:30.291Z,0.20
2023-04-13T16:56:56.332Z,0.10
2023-04-13T16:59:22.455Z,0.10
2023-04-13T17:01:48.722Z,0.10
2023-04-13T17:04:15.018Z,0.10
2023-04-13T17:06:41.185Z,0.10
2023-04-13T17:09:07.583Z,0.20
2023-04-13T17:11:33.782Z,0.30
2023-04-13T17:14:00.330Z,0.15
2023-04-13T17:16:28.600Z,0.50
2023-04-13T17:18:57.870Z,0.10
2023-04-13T17:21:24.323Z,0.10
2023-04-13T17:23:50.410Z,0.10
2023-04-13T17:26:16.496Z,0.20
2023-04-13T17:28:42.560Z,0.20
2023-04-13T17:31:08.631Z,0.15
2023-04-13T17:33:34.741Z,0.10
2023-04-13T17:36:00.874Z,0.30
2023-04-13T17:38:26.942Z,0.30
2023-04-13T17:40:52.995Z,0.28
2023-04-13T17:43:19.213Z,0.13
2023-04-13T17:45:45.478Z,0.20
2023-04-13T17:48:11.834Z,0.10
2023-04-13T17:50:37.900Z,0.30
2023-04-13T17:53:04.208Z,0.20
2023-04-13T17:55:31.051Z,0.20
2023-04-13T17:57:57.102Z,0.30
2023-04-13T18:00:25.310Z,0.17
2023-04-13T18:02:51.635Z,0.30
2023-04-13T18:05:17.910Z,0.10
2023-04-13T18:07:44.350Z,0.30
2023-04-13T18:10:10.770Z,0.10
2023-04-13T18:12:40.590Z,0.20
2023-04-13T18:15:07.816Z,0.00
2023-04-13T18:17:35.072Z,0.20
2023-04-13T18:20:01.598Z,0.00
2023-04-13T18:22:27.675Z,0.10
2023-04-13T18:24:53.732Z,0.20
2023-04-13T18:27:19.905Z,0.20
2023-04-13T18:29:46.257Z,0.10
2023-04-13T18:32:16.112Z,0.10
2023-04-13T18:34:43.484Z,0.32
2023-04-13T18:37:10.666Z,0.30
2023-04-13T18:39:37.660Z,0.20
2023-04-13T18:42:03.792Z,0.10
2023-04-13T18:44:29.946Z,0.13
2023-04-13T18:46:56.210Z,0.20
2023-04-13T18:49:22.346Z,0.28
2023-04-13T18:51:48.391Z,0.10
2023-04-13T18:54:15.329Z,0.08
2023-04-13T18:56:41.450Z,0.30
2023-04-13T18:59:07.675Z,0.17
2023-04-13T19:01:33.805Z,0.10
2023-04-13T19:04:00.397Z,0.10
2023-04-13T19:06:27.113Z,0.10
2023-04-13T19:08:53.201Z,0.10
2023-04-13T19:11:20.110Z,0.03
2023-04-13T19:13:47.441Z,0.22
2023-04-13T19:16:13.828Z,0.05
2023-04-13T19:18:39.908Z,0.10
2023-04-13T19:21:06.094Z,0.10
2023-04-13T19:23:32.573Z,0.30
2023-04-13T19:25:58.948Z,0.30
2023-04-13T19:28:26.214Z,0.08
2023-04-13T19:30:52.368Z,0.17
2023-04-13T19:33:18.993Z,0.20
2023-04-13T19:35:45.182Z,0.13
2023-04-13T19:38:11.278Z,0.15
2023-04-13T19:40:37.465Z,0.20
2023-04-13T19:43:03.519Z,0.20
2023-04-13T19:45:30.007Z,0.10
2023-04-13T19:47:56.121Z,0.10
2023-04-13T19:50:22.191Z,0.10
2023-04-13T19:52:49.608Z,0.13
2023-04-13T19:55:15.744Z,0.10
2023-04-13T19:57:42.335Z,0.10
2023-04-13T20:00:19.561Z,0.10
2023-04-13T20:02:48.816Z,0.20
2023-04-13T20:05:15.784Z,0.28
2023-04-13T20:07:41.949Z,0.20
2023-04-13T20:10:11.392Z,0.10
2023-04-13T20:12:38.075Z,0.55
2023-04-13T20:15:04.626Z,0.10
2023-04-13T20:17:30.861Z,0.68
2023-04-13T20:19:57.106Z,0.10
2023-04-13T20:22:25.476Z,0.20
2023-04-13T20:24:51.796Z,0.10
2023-04-13T20:27:20.798Z,0.10
2023-04-13T20:29:48.127Z,0.10
2023-04-13T20:32:14.356Z,0.15
2023-04-13T20:34:40.451Z,0.20
2023-04-13T20:37:09.564Z,0.10
2023-04-13T20:39:39.613Z,0.20
2023-04-13T20:42:07.551Z,0.13
2023-04-13T20:44:37.193Z,0.20
2023-04-13T20:47:04.539Z,0.30
2023-04-13T20:49:31.020Z,0.30
2023-04-13T20:51:57.356Z,0.22
2023-04-13T20:54:23.512Z,0.10
2023-04-13T20:56:49.980Z,0.10
2023-04-13T20:59:17.301Z,0.30
2023-04-13T21:01:43.544Z,0.32
2023-04-13T21:04:09.884Z,0.20
2023-04-13T21:06:36.544Z,0.10
2023-04-13T21:09:04.709Z,0.20
2023-04-13T21:11:31.110Z,0.22
2023-04-13T21:13:57.159Z,0.45
2023-04-13T21:16:27.624Z,0.43
2023-04-13T21:18:54.220Z,0.25
2023-04-13T21:21:24.165Z,0.28
2023-04-13T21:23:50.576Z,0.30
2023-04-13T21:26:16.814Z,0.20
2023-04-13T21:28:43.007Z,0.45
2023-04-13T21:31:09.067Z,0.55
2023-04-13T21:33:35.292Z,0.10
2023-04-13T21:36:51.442Z,0.25
2023-04-13T21:38:47.736Z,0.40
2023-04-13T21:41:18.228Z,0.28
2023-04-13T21:43:45.098Z,0.80
2023-04-13T21:46:15.343Z,0.25
2023-04-13T21:48:41.909Z,0.90
2023-04-13T21:51:09.123Z,0.25
2023-04-13T21:53:36.596Z,0.20
2023-04-13T21:56:03.400Z,0.28
2023-04-13T21:58:37.990Z,0.20
2023-04-13T22:01:04.381Z,0.28
2023-04-13T22:03:30.633Z,0.20
2023-04-13T22:05:57.766Z,0.20
2023-04-13T22:08:23.889Z,0.40
2023-04-13T22:10:50.023Z,0.28
2023-04-13T22:13:16.073Z,0.55
2023-04-13T22:15:42.573Z,0.68
2023-04-13T22:18:10.925Z,0.40
2023-04-13T22:20:37.066Z,0.28
2023-04-13T22:23:03.138Z,0.20
2023-04-13T22:25:29.197Z,0.30
2023-04-13T22:27:55.316Z,0.38
2023-04-13T22:30:21.511Z,0.20
2023-04-13T22:32:47.591Z,0.20
2023-04-13T22:35:13.806Z,0.32
2023-04-13T22:37:39.914Z,0.40
2023-04-13T22:40:06.514Z,0.20
2023-04-13T22:42:32.588Z,0.25
2023-04-13T22:44:58.665Z,0.30
2023-04-13T22:47:24.902Z,0.20
2023-04-13T22:49:50.957Z,0.22
2023-04-13T22:52:20.264Z,0.40
2023-04-13T22:54:46.954Z,0.15
2023-04-13T22:57:13.133Z,0.30
2023-04-13T22:59:40.069Z,0.30
2023-04-13T23:02:06.565Z,0.50
2023-04-13T23:04:32.809Z,0.50
2023-04-13T23:06:58.968Z,0.30
2023-04-13T23:09:25.077Z,0.35
2023-04-13T23:11:51.242Z,0.85
2023-04-13T23:14:18.015Z,0.30
2023-04-13T23:16:44.268Z,0.25
2023-04-13T23:19:10.531Z,0.30
2023-04-13T23:21:36.644Z,0.30
2023-04-13T23:24:02.836Z,0.32
2023-04-13T23:26:28.941Z,1.05
2023-04-13T23:28:55.050Z,0.30
2023-04-13T23:31:21.144Z,0.20
2023-04-13T23:33:47.210Z,0.40
2023-04-13T23:36:13.447Z,0.20
2023-04-13T23:38:39.767Z,0.30
2023-04-13T23:41:05.858Z,0.45
2023-04-13T23:43:31.915Z,0.32
2023-04-13T23:45:58.366Z,0.40
2023-04-13T23:48:26.300Z,0.57
2023-04-13T23:50:52.476Z,0.30
2023-04-13T23:53:21.605Z,0.30
2023-04-13T23:55:47.698Z,0.40
2023-04-13T23:58:13.753Z,0.50
